Time;durP1;ratioP1;P1;durP2;ratioP2;P2;SDS_P1;SDS_P2;PMS_P1;PMS_P2;Temp;Humidity;BMP_temperature;BMP_pressure;BME280_temperature;BME280_humidity;BME280_pressure;Samples;Min_cycle;Max_cycle;Signal;HPM_P1;HPM_P2
2022/07/04 00:02:50;;;;;;;;;;;;;;;23.01;47.53;95858.91;10511396;28;1870;-60
2022/07/04 00:07:51;;;;;;;;;;;;;;;23.03;47.78;95862.06;10508327;28;1810;-59
2022/07/04 00:12:51;;;;;;;;;;;;;;;23.05;48.38;95849.34;10507753;28;1800;-60
2022/07/04 00:17:52;;;;;;;;;;;;;;;23.02;49.10;95853.34;10514635;28;1984;-59
2022/07/04 00:22:52;;;;;;;;;;;;;;;23.00;49.40;95855.47;10510955;28;1890;-59
2022/07/04 00:27:53;;;;;;;;;;;;;;;22.98;49.86;95846.28;10511921;28;1851;-59
2022/07/04 00:32:53;;;;;;;;;;;;;;;22.92;50.77;95852.69;10506830;28;1823;-60
2022/07/04 00:37:53;;;;;;;;;;;;;;;22.86;50.57;95857.25;10511806;28;1902;-60
2022/07/04 00:42:59;;;;;;;;;;;;;;;22.85;50.66;95852.28;10497039;28;1938;-59
2022/07/04 00:48:00;;;;;;;;;;;;;;;22.82;50.55;95852.81;10510446;28;1926;-60
2022/07/04 00:53:00;;;;;;;;;;;;;;;22.89;50.64;95858.56;10507287;28;1890;-60
2022/07/04 00:58:01;;;;;;;;;;;;;;;22.86;51.15;95848.53;10508827;28;1968;-60
2022/07/04 01:03:01;;;;;;;;;;;;;;;22.74;51.72;95893.09;10513005;28;1946;-60
2022/07/04 01:08:01;;;;;;;;;;;;;;;22.63;51.37;95879.22;10504643;28;1944;-58
2022/07/04 01:13:03;;;;;;;;;;;;;;;22.54;51.78;95865.84;10495317;28;2035;-58
2022/07/04 01:18:04;;;;;;;;;;;;;;;22.46;52.13;95866.44;10510071;28;1902;-60
2022/07/04 01:23:05;;;;;;;;;;;;;;;22.41;51.58;95877.09;10507557;28;1996;-58
2022/07/04 01:28:06;;;;;;;;;;;;;;;22.41;51.80;95878.94;10509333;28;2152;-60
2022/07/04 01:33:08;;;;;;;;;;;;;;;22.42;51.77;95868.09;10511918;28;1908;-59
2022/07/04 01:38:14;;;;;;;;;;;;;;;22.43;51.97;95872.31;10510559;28;1972;-60
2022/07/04 01:43:35;;;;;;;;;;;;;;;22.48;51.79;95860.91;10509936;28;1980;-58
2022/07/04 01:48:36;;;;;;;;;;;;;;;22.50;51.78;95848.97;10508084;28;1942;-60
2022/07/04 01:53:37;;;;;;;;;;;;;;;22.53;51.51;95835.22;10504702;28;1936;-61
2022/07/04 01:58:37;;;;;;;;;;;;;;;22.48;51.76;95826.56;10504344;28;2059;-60
2022/07/04 02:03:37;;;;;;;;;;;;;;;22.44;51.97;95805.19;10510084;28;1960;-60
2022/07/04 02:13:56;;;;;;;;;;;;;;;22.60;51.55;95809.28;10504951;28;2000;-58
2022/07/04 02:18:57;;;;;;;;;;;;;;;22.73;51.70;95814.91;10507987;28;1964;-61
2022/07/04 02:23:57;;;;;;;;;;;;;;;22.74;51.62;95824.41;10499957;28;2195;-57
2022/07/04 02:28:57;;;;;;;;;;;;;;;22.74;51.84;95832.31;10502110;28;2162;-59
2022/07/04 02:33:58;;;;;;;;;;;;;;;22.80;51.62;95823.25;10505929;28;1901;-60
2022/07/04 02:38:59;;;;;;;;;;;;;;;22.81;51.55;95836.22;10507324;28;1905;-60
2022/07/04 02:43:59;;;;;;;;;;;;;;;22.71;51.76;95840.84;10500669;28;1914;-60
2022/07/04 02:49:00;;;;;;;;;;;;;;;22.67;51.66;95842.47;10508102;28;1929;-60
2022/07/04 02:54:00;;;;;;;;;;;;;;;22.74;51.69;95850.81;10506514;28;1894;-59
2022/07/04 02:59:01;;;;;;;;;;;;;;;22.78;51.33;95854.47;10512803;28;1965;-58
2022/07/04 03:04:02;;;;;;;;;;;;;;;22.75;51.72;95857.69;10516042;28;1878;-60
2022/07/04 03:09:02;;;;;;;;;;;;;;;22.71;51.73;95857.47;10516643;28;1898;-60
2022/07/04 03:14:04;;;;;;;;;;;;;;;22.77;51.60;95858.19;10508608;28;1941;-60
2022/07/04 03:19:04;;;;;;;;;;;;;;;22.74;51.41;95850.81;10508860;28;2043;-59
2022/07/04 03:24:05;;;;;;;;;;;;;;;22.80;51.69;95836.47;10510770;28;1953;-59
2022/07/04 03:29:05;;;;;;;;;;;;;;;22.83;51.84;95838.56;10514928;28;1909;-56
2022/07/04 03:34:06;;;;;;;;;;;;;;;22.80;51.55;95850.47;10514473;28;1901;-57
2022/07/04 03:39:07;;;;;;;;;;;;;;;22.72;52.11;95868.81;10516258;28;1910;-59
2022/07/04 03:44:07;;;;;;;;;;;;;;;22.65;52.30;95879.72;10513682;28;2126;-59
2022/07/04 03:49:08;;;;;;;;;;;;;;;22.71;52.29;95888.41;10511843;28;1972;-59
2022/07/04 03:54:08;;;;;;;;;;;;;;;22.76;52.09;95885.69;10506612;28;1949;-58
2022/07/04 03:59:09;;;;;;;;;;;;;;;22.75;52.08;95884.88;10507660;28;1921;-59
2022/07/04 04:09:28;;;;;;;;;;;;;;;22.74;52.50;95919.53;10503458;28;1921;-59
2022/07/04 04:14:29;;;;;;;;;;;;;;;22.78;52.41;95937.19;10504592;28;2019;-59
2022/07/04 04:19:29;;;;;;;;;;;;;;;22.75;52.47;95936.97;10511476;28;1834;-60
2022/07/04 04:24:29;;;;;;;;;;;;;;;22.76;52.61;95938.53;10508559;28;1929;-59
2022/07/04 04:29:30;;;;;;;;;;;;;;;22.80;52.97;95947.47;10507641;28;1910;-58
2022/07/04 04:34:30;;;;;;;;;;;;;;;22.60;53.69;95946.66;10510288;28;1980;-59
2022/07/04 04:39:30;;;;;;;;;;;;;;;22.72;53.38;95958.66;10509128;28;1920;-60
2022/07/04 04:44:31;;;;;;;;;;;;;;;22.75;53.84;95950.19;10508448;28;2001;-59
2022/07/04 04:49:32;;;;;;;;;;;;;;;22.82;53.66;95946.13;10506486;28;2219;-59
2022/07/04 04:54:35;;;;;;;;;;;;;;;22.83;53.54;95939.78;10514112;28;1972;-57
2022/07/04 04:59:35;;;;;;;;;;;;;;;22.74;54.01;95959.16;10492058;28;1926;-59
2022/07/04 05:04:35;;;;;;;;;;;;;;;22.71;54.32;95957.09;10510250;28;1964;-57
2022/07/04 05:09:36;;;;;;;;;;;;;;;22.56;54.91;95971.25;10507995;28;1941;-59
2022/07/04 05:14:36;;;;;;;;;;;;;;;22.48;55.53;95988.47;10507753;28;2330;-58
2022/07/04 05:19:37;;;;;;;;;;;;;;;22.41;55.63;96000.44;10505671;28;1965;-58
2022/07/04 05:24:39;;;;;;;;;;;;;;;22.34;55.70;96006.03;10506011;28;1973;-60
2022/07/04 05:29:39;;;;;;;;;;;;;;;22.28;55.91;96004.53;10505359;28;1943;-60
2022/07/04 05:34:39;;;;;;;;;;;;;;;22.24;55.37;96010.63;10507027;28;1914;-59
2022/07/04 05:39:40;;;;;;;;;;;;;;;22.17;55.68;95997.78;10505253;28;1988;-57
2022/07/04 05:44:40;;;;;;;;;;;;;;;22.12;55.71;95989.09;10502809;28;1989;-58
2022/07/04 05:49:40;;;;;;;;;;;;;;;22.05;55.67;95997.31;10507686;28;1787;-59
2022/07/04 05:54:40;;;;;;;;;;;;;;;22.17;55.64;96004.91;10498961;28;1967;-60
2022/07/04 05:59:42;;;;;;;;;;;;;;;22.36;54.81;96022.41;10507000;28;1804;-58
2022/07/04 06:04:43;;;;;;;;;;;;;;;22.48;54.60;96025.44;10508368;28;1895;-59
2022/07/04 06:09:44;;;;;;;;;;;;;;;22.59;54.19;96024.34;10490171;28;1991;-60
2022/07/04 06:14:45;;;;;;;;;;;;;;;22.67;53.81;96030.09;10505119;28;2127;-60
2022/07/04 06:19:46;;;;;;;;;;;;;;;22.74;53.37;96030.53;10504997;28;1864;-61
2022/07/04 06:24:46;;;;;;;;;;;;;;;22.80;53.43;96032.84;10506041;28;1844;-60
2022/07/04 06:29:46;;;;;;;;;;;;;;;22.82;53.04;96038.63;10500321;28;2007;-59
2022/07/04 06:40:08;;;;;;;;;;;;;;;22.91;53.25;96020.31;10516925;28;1756;-59
2022/07/04 06:45:09;;;;;;;;;;;;;;;22.93;52.88;96028.75;10512546;28;1859;-60
2022/07/04 06:50:09;;;;;;;;;;;;;;;22.96;52.92;96036.09;10511870;28;2242;-61
2022/07/04 06:55:09;;;;;;;;;;;;;;;22.98;53.14;96044.56;10513643;28;1973;-57
2022/07/04 07:00:10;;;;;;;;;;;;;;;23.03;53.13;96041.84;10514405;28;1815;-59
2022/07/04 07:05:10;;;;;;;;;;;;;;;23.05;53.16;96050.28;10507083;28;1827;-61
2022/07/04 07:10:11;;;;;;;;;;;;;;;23.04;52.97;96044.19;10513954;28;1989;-60
2022/07/04 07:15:13;;;;;;;;;;;;;;;23.06;53.03;96046.59;10508807;28;1993;-59
2022/07/04 07:20:13;;;;;;;;;;;;;;;23.08;52.89;96047.84;10512022;28;2097;-61
2022/07/04 07:25:15;;;;;;;;;;;;;;;23.10;52.91;96053.66;10511731;28;1788;-58
2022/07/04 07:30:15;;;;;;;;;;;;;;;23.09;52.86;96060.03;10508723;28;2093;-59
2022/07/04 07:35:16;;;;;;;;;;;;;;;23.08;53.14;96045.22;10506145;28;1909;-60
2022/07/04 07:40:16;;;;;;;;;;;;;;;23.06;53.32;96054.50;10513486;28;1905;-62
2022/07/04 07:45:16;;;;;;;;;;;;;;;23.05;53.72;96060.84;10506962;28;1789;-62
2022/07/04 07:50:16;;;;;;;;;;;;;;;23.04;53.78;96033.63;10500794;28;1803;-60
2022/07/04 07:55:18;;;;;;;;;;;;;;;23.04;53.45;96024.94;10509286;28;1906;-59
2022/07/04 08:00:18;;;;;;;;;;;;;;;23.04;53.76;96017.75;10505620;28;1938;-58
2022/07/04 08:05:19;;;;;;;;;;;;;;;23.02;53.88;96006.69;10512707;28;1792;-61
2022/07/04 08:10:19;;;;;;;;;;;;;;;23.06;53.70;96005.03;10506707;28;1947;-61
2022/07/04 08:15:19;;;;;;;;;;;;;;;23.06;53.46;96007.69;10511051;28;1922;-60
2022/07/04 08:20:19;;;;;;;;;;;;;;;23.06;53.46;96001.63;10511985;28;1875;-57
2022/07/04 08:25:20;;;;;;;;;;;;;;;23.07;53.45;95992.63;10509567;28;1941;-60
2022/07/04 08:30:20;;;;;;;;;;;;;;;23.11;53.09;95983.03;10507665;28;1769;-58
2022/07/04 08:35:20;;;;;;;;;;;;;;;23.12;53.41;95972.19;10512288;28;1967;-56
2022/07/04 08:40:22;;;;;;;;;;;;;;;23.15;52.77;95979.56;10512560;28;1984;-62
2022/07/04 08:45:27;;;;;;;;;;;;;;;23.16;52.74;95978.47;10506087;28;1554;-58
2022/07/04 08:50:31;;;;;;;;;;;;;;;23.19;52.71;95993.00;10510291;28;1827;-59
2022/07/04 09:00:50;;;;;;;;;;;;;;;23.19;51.78;95969.97;10508885;28;1753;-62
2022/07/04 09:05:51;;;;;;;;;;;;;;;23.24;51.75;95982.34;10507757;28;1994;-61
2022/07/04 09:10:51;;;;;;;;;;;;;;;23.26;51.70;95967.00;10504234;28;1920;-60
2022/07/04 09:15:53;;;;;;;;;;;;;;;23.28;51.76;95970.13;10510511;28;1906;-61
2022/07/04 09:20:54;;;;;;;;;;;;;;;23.30;51.25;95970.63;10508405;28;1803;-60
2022/07/04 09:26:15;;;;;;;;;;;;;;;23.32;51.35;95995.78;10512822;28;1864;-61
2022/07/04 09:31:16;;;;;;;;;;;;;;;23.33;51.51;95980.66;10507228;28;1808;-59
2022/07/04 09:36:18;;;;;;;;;;;;;;;23.35;51.19;95983.81;10508317;28;1975;-58
2022/07/04 09:41:34;;;;;;;;;;;;;;;23.36;51.37;95980.91;10504358;28;1923;-61
2022/07/04 09:46:36;;;;;;;;;;;;;;;23.39;51.04;95987.44;10507494;28;1697;-61
2022/07/04 09:51:39;;;;;;;;;;;;;;;23.40;50.93;95981.91;10499389;28;1847;-61
2022/07/04 09:56:43;;;;;;;;;;;;;;;23.42;50.71;95973.66;10508929;28;1913;-57
2022/07/04 10:01:44;;;;;;;;;;;;;;;23.44;50.63;95976.81;10505808;28;1824;-60
2022/07/04 10:06:45;;;;;;;;;;;;;;;23.45;50.63;95975.75;10507690;28;1787;-61
2022/07/04 10:11:46;;;;;;;;;;;;;;;23.47;50.75;95964.88;10504175;28;1840;-60
2022/07/04 10:16:46;;;;;;;;;;;;;;;23.49;50.83;95968.81;10511476;28;1921;-58
2022/07/04 10:21:46;;;;;;;;;;;;;;;23.50;50.45;95970.38;10504344;28;1811;-59
2022/07/04 10:26:47;;;;;;;;;;;;;;;23.51;50.48;95974.59;10488091;28;1823;-59
2022/07/04 10:31:47;;;;;;;;;;;;;;;23.52;50.64;95970.09;10505707;28;1965;-57
2022/07/04 10:36:51;;;;;;;;;;;;;;;23.52;50.53;95976.16;10507724;28;1976;-58
2022/07/04 10:41:58;;;;;;;;;;;;;;;23.52;50.46;95973.53;10505136;28;1773;-59
2022/07/04 10:46:58;;;;;;;;;;;;;;;23.53;50.48;95969.81;10504306;28;1921;-60
2022/07/04 10:52:11;;;;;;;;;;;;;;;23.54;50.17;95966.09;10506139;28;1831;-57
2022/07/04 10:57:21;;;;;;;;;;;;;;;23.54;50.39;95966.09;10501808;28;1963;-60
2022/07/04 11:02:23;;;;;;;;;;;;;;;23.54;50.18;95958.16;10504591;28;1834;-61
2022/07/04 11:07:30;;;;;;;;;;;;;;;23.56;50.09;95960.50;10506500;28;1847;-59
2022/07/04 11:12:30;;;;;;;;;;;;;;;23.57;49.98;95964.72;10501921;28;1784;-58
2022/07/04 11:17:36;;;;;;;;;;;;;;;23.57;49.94;95954.16;10505219;28;1969;-58
2022/07/04 11:22:36;;;;;;;;;;;;;;;23.58;50.08;95948.56;10505921;28;1876;-60
2022/07/04 11:27:37;;;;;;;;;;;;;;;23.59;50.34;95952.78;10511320;28;1838;-59
2022/07/04 11:32:39;;;;;;;;;;;;;;;23.61;50.44;95944.56;10508498;28;1830;-59
2022/07/04 11:37:42;;;;;;;;;;;;;;;23.63;50.67;95937.13;10504686;28;1902;-62
2022/07/04 11:48:24;;;;;;;;;;;;;;;23.64;50.25;95934.16;10515809;28;1847;-57
2022/07/04 11:53:25;;;;;;;;;;;;;;;23.65;50.32;95933.13;10507414;28;1851;-59
2022/07/04 11:58:25;;;;;;;;;;;;;;;23.65;50.39;95925.19;10504846;28;1914;-61
2022/07/04 12:03:25;;;;;;;;;;;;;;;23.65;49.82;95922.53;10510626;28;1891;-60
2022/07/04 12:08:26;;;;;;;;;;;;;;;23.67;49.87;95924.88;10511255;28;1911;-59
2022/07/04 12:13:26;;;;;;;;;;;;;;;23.66;49.96;95918.78;10507059;28;1812;-61
2022/07/04 12:18:32;;;;;;;;;;;;;;;23.66;50.04;95921.44;10511351;28;1897;-58
2022/07/04 12:23:33;;;;;;;;;;;;;;;23.65;49.61;95906.66;10506627;28;1813;-59
2022/07/04 12:28:36;;;;;;;;;;;;;;;23.67;49.87;95899.22;10506550;28;1807;-61
2022/07/04 12:33:36;;;;;;;;;;;;;;;23.68;49.60;95894.72;10506248;28;1807;-60
2022/07/04 12:38:37;;;;;;;;;;;;;;;23.67;49.52;95885.97;10507550;28;1902;-61
2022/07/04 12:43:41;;;;;;;;;;;;;;;23.70;49.70;95872.16;10501459;28;1697;-61
2022/07/04 12:48:41;;;;;;;;;;;;;;;23.68;49.90;95861.06;10509116;28;1772;-59
2022/07/04 12:53:42;;;;;;;;;;;;;;;23.72;49.87;95863.94;10509396;28;1860;-58
2022/07/04 12:58:43;;;;;;;;;;;;;;;23.73;49.72;95866.28;10504202;28;1901;-59
2022/07/04 13:03:43;;;;;;;;;;;;;;;23.72;49.79;95856.75;10505141;28;1799;-59
2022/07/04 13:08:43;;;;;;;;;;;;;;;23.74;49.74;95862.53;10508084;28;1796;-61
2022/07/04 13:13:44;;;;;;;;;;;;;;;23.76;49.63;95857.75;10503032;28;1757;-60
2022/07/04 13:18:44;;;;;;;;;;;;;;;23.78;49.79;95852.19;10504762;28;1965;-60
2022/07/04 13:23:45;;;;;;;;;;;;;;;23.76;49.70;95844.50;10502508;28;1848;-58
2022/07/04 13:28:46;;;;;;;;;;;;;;;23.79;49.59;95843.16;10504442;28;1864;-61
2022/07/04 13:33:47;;;;;;;;;;;;;;;23.81;49.87;95828.56;10507604;28;1885;-61
2022/07/04 13:38:47;;;;;;;;;;;;;;;23.80;49.65;95824.31;10503882;28;1971;-60
2022/07/04 13:43:47;;;;;;;;;;;;;;;23.81;49.92;95833.06;10499740;28;1974;-60
2022/07/04 13:48:48;;;;;;;;;;;;;;;23.79;49.89;95817.47;10509649;28;1846;-60
2022/07/04 13:53:49;;;;;;;;;;;;;;;23.81;49.81;95812.66;10499410;28;1732;-59
2022/07/04 13:58:49;;;;;;;;;;;;;;;23.83;50.01;95813.16;10500629;28;2031;-60
2022/07/04 14:03:49;;;;;;;;;;;;;;;23.82;49.77;95808.94;10506721;28;2129;-60
2022/07/04 14:08:50;;;;;;;;;;;;;;;23.82;49.79;95797.59;10503859;28;1760;-57
2022/07/04 14:13:50;;;;;;;;;;;;;;;23.81;49.88;95796.78;10500841;28;1812;-60
2022/07/04 14:18:50;;;;;;;;;;;;;;;23.83;49.69;95789.34;10506004;28;1902;-58
2022/07/04 14:23:52;;;;;;;;;;;;;;;23.83;49.60;95792.00;10505727;28;1843;-60
2022/07/04 14:28:52;;;;;;;;;;;;;;;23.84;49.97;95792.78;10508724;28;1799;-61
2022/07/04 14:33:55;;;;;;;;;;;;;;;23.84;49.70;95785.63;10508139;28;1863;-61
2022/07/04 14:38:56;;;;;;;;;;;;;;;23.87;49.59;95794.81;10499459;28;1951;-61
2022/07/04 14:43:56;;;;;;;;;;;;;;;23.86;49.83;95788.75;10499221;28;1970;-60
2022/07/04 14:48:57;;;;;;;;;;;;;;;23.90;49.46;95779.16;10504555;28;1822;-60
2022/07/04 14:53:58;;;;;;;;;;;;;;;23.90;49.51;95773.88;10508706;28;1854;-60
2022/07/04 14:58:58;;;;;;;;;;;;;;;23.90;49.79;95768.56;10507125;28;1909;-61
2022/07/04 15:03:58;;;;;;;;;;;;;;;23.90;49.45;95768.56;10508585;28;1835;-60
2022/07/04 15:08:59;;;;;;;;;;;;;;;23.92;49.65;95758.47;10509616;28;1860;-62
2022/07/04 15:13:59;;;;;;;;;;;;;;;23.91;49.65;95751.59;10508404;28;1942;-59
2022/07/04 15:19:00;;;;;;;;;;;;;;;23.92;49.80;95750.53;10510541;28;1962;-57
2022/07/04 15:24:14;;;;;;;;;;;;;;;23.93;49.35;95743.34;10512268;28;1784;-58
2022/07/04 15:29:15;;;;;;;;;;;;;;;23.90;49.53;95731.50;10510685;28;1823;-59
2022/07/04 15:34:16;;;;;;;;;;;;;;;23.92;49.35;95737.28;10508508;28;1748;-61
2022/07/04 15:39:16;;;;;;;;;;;;;;;23.92;49.25;95729.34;10510094;28;1910;-60
2022/07/04 15:44:17;;;;;;;;;;;;;;;23.90;49.53;95728.84;10503959;28;1820;-61
2022/07/04 15:49:17;;;;;;;;;;;;;;;23.90;49.26;95728.84;10513819;28;1853;-57
2022/07/04 15:54:17;;;;;;;;;;;;;;;23.92;49.18;95721.41;10517335;28;1741;-58
2022/07/04 15:59:19;;;;;;;;;;;;;;;23.90;49.60;95734.16;10493494;28;1997;-54
2022/07/04 16:04:20;;;;;;;;;;;;;;;23.93;49.18;95724.81;10510674;28;1797;-60
2022/07/04 16:09:20;;;;;;;;;;;;;;;23.92;49.14;95718.75;10513545;28;1826;-59
2022/07/04 16:14:20;;;;;;;;;;;;;;;23.93;49.16;95720.31;10508806;28;1947;-59
2022/07/04 16:19:21;;;;;;;;;;;;;;;23.94;49.31;95716.59;10515640;28;2008;-59
2022/07/04 16:24:21;;;;;;;;;;;;;;;23.95;49.21;95718.16;10508926;28;1808;-59
2022/07/04 16:29:21;;;;;;;;;;;;;;;23.96;49.21;95719.72;10510053;28;1814;-59
2022/07/04 16:34:22;;;;;;;;;;;;;;;23.96;49.01;95725.03;10512509;28;2013;-57
2022/07/04 16:39:23;;;;;;;;;;;;;;;23.96;48.81;95711.78;10510470;28;1971;-59
2022/07/04 16:44:23;;;;;;;;;;;;;;;23.95;48.95;95707.56;10508749;28;2047;-59
2022/07/04 16:49:23;;;;;;;;;;;;;;;23.95;48.94;95722.66;10513154;28;2085;-61
2022/07/04 16:54:24;;;;;;;;;;;;;;;23.94;48.85;95713.94;10505309;28;1997;-59
2022/07/04 16:59:24;;;;;;;;;;;;;;;23.94;48.99;95721.91;10508311;28;2039;-62
2022/07/04 17:04:25;;;;;;;;;;;;;;;23.87;48.73;95710.91;10506625;28;2011;-60
2022/07/04 17:09:25;;;;;;;;;;;;;;;23.85;48.86;95715.72;10503713;28;1781;-60
2022/07/04 17:14:26;;;;;;;;;;;;;;;23.91;48.66;95719.81;10494214;28;1807;-59
2022/07/04 17:19:26;;;;;;;;;;;;;;;23.91;48.52;95719.81;10500501;28;1952;-58
2022/07/04 17:24:27;;;;;;;;;;;;;;;23.90;48.48;95731.50;10501344;28;1830;-61
2022/07/04 17:29:27;;;;;;;;;;;;;;;23.91;48.62;95727.75;10502566;28;1851;-61
2022/07/04 17:34:27;;;;;;;;;;;;;;;23.92;48.20;95724.06;10506627;28;1543;-62
2022/07/04 17:39:28;;;;;;;;;;;;;;;24.03;48.00;95716.66;10496176;28;2302;-58
2022/07/04 17:44:28;;;;;;;;;;;;;;;24.19;48.12;95715.31;10501035;28;1834;-60
2022/07/04 17:49:28;;;;;;;;;;;;;;;24.32;48.08;95726.97;10508141;28;1831;-61
2022/07/04 17:54:28;;;;;;;;;;;;;;;24.43;46.79;95723.81;10502042;28;2204;-59
2022/07/04 17:59:29;;;;;;;;;;;;;;;24.57;46.02;95727.19;10500969;28;2206;-62
2022/07/04 18:04:30;;;;;;;;;;;;;;;24.62;45.62;95723.66;10498958;28;1838;-61
2022/07/04 18:09:31;;;;;;;;;;;;;;;24.67;45.38;95723.53;10503428;28;1881;-57
2022/07/04 18:14:31;;;;;;;;;;;;;;;24.73;45.47;95717.03;10501344;28;1795;-61
2022/07/04 18:19:31;;;;;;;;;;;;;;;24.77;45.35;95715.38;10507376;28;1910;-60
2022/07/04 18:24:32;;;;;;;;;;;;;;;24.82;45.17;95709.94;10501455;28;1861;-61
2022/07/04 18:29:33;;;;;;;;;;;;;;;24.79;45.00;95721.16;10501776;28;1840;-60
2022/07/04 18:34:33;;;;;;;;;;;;;;;24.72;45.03;95716.25;10510715;28;1862;-60
2022/07/04 18:39:33;;;;;;;;;;;;;;;24.70;45.29;95712.31;10510063;28;1981;-61
2022/07/04 18:44:34;;;;;;;;;;;;;;;24.60;45.68;95723.16;10505027;28;1864;-58
2022/07/04 18:49:38;;;;;;;;;;;;;;;24.50;45.86;95734.00;10510406;28;1883;-60
2022/07/04 18:54:40;;;;;;;;;;;;;;;24.50;45.86;95747.25;10502412;28;1973;-60
2022/07/04 18:59:40;;;;;;;;;;;;;;;24.39;46.51;95756.47;10502345;28;1969;-59
2022/07/04 19:04:40;;;;;;;;;;;;;;;24.34;46.79;95762.66;10505072;28;1835;-60
2022/07/04 19:09:41;;;;;;;;;;;;;;;24.22;46.72;95788.88;10504170;28;1780;-62
2022/07/04 19:14:41;;;;;;;;;;;;;;;23.93;47.50;95828.06;10506604;28;2048;-63
2022/07/04 19:19:41;;;;;;;;;;;;;;;23.79;49.18;95849.25;10513731;28;1977;-62
2022/07/04 19:24:42;;;;;;;;;;;;;;;23.63;51.31;95882.34;10506193;28;2052;-62
2022/07/04 19:29:42;;;;;;;;;;;;;;;23.59;52.30;95888.50;10509450;28;1877;-63
2022/07/04 19:34:43;;;;;;;;;;;;;;;23.60;52.64;95922.59;10510115;28;2066;-62
2022/07/04 19:39:43;;;;;;;;;;;;;;;23.45;53.13;95931.53;10504930;28;2095;-63
2022/07/04 19:44:44;;;;;;;;;;;;;;;23.33;53.78;95940.97;10505537;28;1855;-61
2022/07/04 19:49:46;;;;;;;;;;;;;;;23.22;54.76;95958.84;10512248;28;1783;-62
2022/07/04 19:54:46;;;;;;;;;;;;;;;23.19;54.69;95969.19;10509150;28;1846;-63
2022/07/04 19:59:47;;;;;;;;;;;;;;;23.34;53.76;95963.72;10506617;28;1902;-63
2022/07/04 20:04:47;;;;;;;;;;;;;;;23.47;53.09;95970.97;10503394;28;2085;-63
2022/07/04 20:09:48;;;;;;;;;;;;;;;23.57;52.29;95978.75;10503799;28;1962;-63
2022/07/04 20:14:49;;;;;;;;;;;;;;;23.66;52.01;95984.97;10487806;28;1800;-63
2022/07/04 20:19:50;;;;;;;;;;;;;;;23.75;51.22;95982.44;10490691;28;1902;-63
2022/07/04 20:24:51;;;;;;;;;;;;;;;23.84;50.72;95978.09;10503572;28;1879;-63
2022/07/04 20:29:52;;;;;;;;;;;;;;;23.88;50.33;95982.53;10506003;28;1781;-64
2022/07/04 20:35:02;;;;;;;;;;;;;;;23.91;50.27;95973.97;10504588;28;1844;-61
2022/07/04 20:40:03;;;;;;;;;;;;;;;23.93;50.41;95985.06;10505567;28;1816;-64
2022/07/04 20:45:04;;;;;;;;;;;;;;;23.96;50.23;95991.66;10502235;28;1764;-61
2022/07/04 20:50:04;;;;;;;;;;;;;;;23.96;50.45;95984.50;10499759;28;1831;-62
2022/07/04 20:55:05;;;;;;;;;;;;;;;23.97;50.40;95980.78;10508918;28;1926;-64
2022/07/04 21:00:06;;;;;;;;;;;;;;;23.99;50.39;95983.91;10505467;28;2141;-62
2022/07/04 21:05:07;;;;;;;;;;;;;;;23.99;50.64;95983.13;10510907;28;1843;-63
2022/07/04 21:10:07;;;;;;;;;;;;;;;24.01;50.37;95978.31;10510154;28;2129;-64
2022/07/04 21:15:08;;;;;;;;;;;;;;;24.01;50.52;95980.97;10504666;28;1910;-64
2022/07/04 21:20:08;;;;;;;;;;;;;;;24.01;50.56;95983.63;10502690;28;1827;-61
2022/07/04 21:25:08;;;;;;;;;;;;;;;24.01;50.31;95987.06;10506293;28;1808;-60
2022/07/04 21:30:09;;;;;;;;;;;;;;;24.02;50.12;95999.25;10508113;28;1823;-62
2022/07/04 21:35:10;;;;;;;;;;;;;;;24.03;50.37;95992.88;10505781;28;1934;-60
2022/07/04 21:40:11;;;;;;;;;;;;;;;24.04;50.27;95993.69;10502273;28;2001;-62
2022/07/04 21:45:11;;;;;;;;;;;;;;;24.04;50.20;95991.03;10500208;28;1828;-63
2022/07/04 21:50:11;;;;;;;;;;;;;;;24.05;50.38;96003.97;10503645;28;1823;-63
2022/07/04 21:55:13;;;;;;;;;;;;;;;24.06;50.22;95999.47;10506161;28;1914;-64
2022/07/04 22:00:14;;;;;;;;;;;;;;;24.06;50.12;96007.41;10500959;28;1814;-63
2022/07/04 22:05:17;;;;;;;;;;;;;;;24.06;50.37;96005.56;10503816;28;1826;-65
2022/07/04 22:10:17;;;;;;;;;;;;;;;24.06;50.25;96000.25;10500183;28;1855;-62
2022/07/04 22:15:17;;;;;;;;;;;;;;;24.07;49.97;96007.13;10499738;28;1960;-63
2022/07/04 22:20:19;;;;;;;;;;;;;;;24.07;50.45;96007.13;10500739;28;2382;-62
2022/07/04 22:25:20;;;;;;;;;;;;;;;24.07;49.95;96001.81;10502418;28;1912;-65
2022/07/04 22:30:20;;;;;;;;;;;;;;;24.08;50.10;96006.06;10499484;28;1869;-64
2022/07/04 22:35:20;;;;;;;;;;;;;;;24.08;50.37;96008.69;10503203;28;1905;-65
2022/07/04 22:40:20;;;;;;;;;;;;;;;24.09;50.35;96009.50;10504093;28;1811;-63
2022/07/04 22:45:21;;;;;;;;;;;;;;;24.09;50.29;96007.59;10499455;28;1732;-63
2022/07/04 22:50:21;;;;;;;;;;;;;;;24.10;50.36;96003.09;10500425;28;1839;-63
2022/07/04 22:55:21;;;;;;;;;;;;;;;24.10;50.17;96006.56;10499764;28;1977;-63
2022/07/04 23:00:22;;;;;;;;;;;;;;;24.10;50.21;95998.59;10504419;28;1820;-63
2022/07/04 23:05:22;;;;;;;;;;;;;;;24.10;50.11;95993.31;10505323;28;1943;-61
2022/07/04 23:10:22;;;;;;;;;;;;;;;24.11;49.96;95986.16;10503770;28;1792;-62
2022/07/04 23:15:23;;;;;;;;;;;;;;;24.10;50.28;95980.06;10500251;28;1906;-62
2022/07/04 23:20:23;;;;;;;;;;;;;;;24.11;49.94;95981.63;10509271;28;1827;-65
2022/07/04 23:25:23;;;;;;;;;;;;;;;24.12;50.38;95982.41;10509248;28;1895;-62
2022/07/04 23:30:24;;;;;;;;;;;;;;;24.12;50.22;95977.91;10508286;28;1852;-63
2022/07/04 23:35:24;;;;;;;;;;;;;;;24.12;50.15;95980.56;10511828;28;1926;-62
2022/07/04 23:40:25;;;;;;;;;;;;;;;24.12;50.25;95977.91;10510541;28;1807;-63
2022/07/04 23:45:25;;;;;;;;;;;;;;;24.12;50.38;95967.31;10509183;28;1831;-63
2022/07/04 23:50:25;;;;;;;;;;;;;;;24.13;50.16;95968.13;10489193;28;1931;-64
2022/07/04 23:55:26;;;;;;;;;;;;;;;24.12;50.09;95967.31;10510758;28;1910;-61
